Time;durP1;ratioP1;P1;durP2;ratioP2;P2;SDS_P1;SDS_P2;PMS_P1;PMS_P2;Temp;Humidity;BMP_temperature;BMP_pressure;BME280_temperature;BME280_humidity;BME280_pressure;Samples;Min_cycle;Max_cycle;Signal;HPM_P1;HPM_P2
2023/06/25 00:00:51;;;;;;;7.88;7.35;;;;;;;;;;5032965;28;20056;-75
2023/06/25 00:03:17;;;;;;;7.95;7.55;;;;;;;;;;5000224;28;20088;-75
2023/06/25 00:05:43;;;;;;;7.90;7.40;;;;;;;;;;5033214;28;20041;-75
2023/06/25 00:08:10;;;;;;;7.60;7.20;;;;;;;;;;5033332;28;20537;-75
2023/06/25 00:10:36;;;;;;;8.20;7.70;;;;;;;;;;5033777;28;20129;-75
2023/06/25 00:13:02;;;;;;;8.45;7.85;;;;;;;;;;5016509;28;20229;-75
2023/06/25 00:15:28;;;;;;;9.00;8.40;;;;;;;;;;5032892;28;20041;-76
2023/06/25 00:17:54;;;;;;;8.52;7.93;;;;;;;;;;5016740;28;20128;-75
2023/06/25 00:20:20;;;;;;;8.32;7.82;;;;;;;;;;5032605;28;20053;-75
2023/06/25 00:22:46;;;;;;;7.55;7.05;;;;;;;;;;5016178;28;20053;-75
2023/06/25 00:25:14;;;;;;;8.55;8.05;;;;;;;;;;5032302;28;20065;-76
2023/06/25 00:27:41;;;;;;;9.18;8.57;;;;;;;;;;5033645;28;20056;-75
2023/06/25 00:30:07;;;;;;;9.00;8.25;;;;;;;;;;5032999;28;20136;-75
2023/06/25 00:32:34;;;;;;;7.72;7.20;;;;;;;;;;5032939;28;20053;-75
2023/06/25 00:35:01;;;;;;;9.15;8.45;;;;;;;;;;5032625;28;20507;-75
2023/06/25 00:37:28;;;;;;;8.85;8.23;;;;;;;;;;5032573;28;20133;-75
2023/06/25 00:39:54;;;;;;;9.57;8.68;;;;;;;;;;5016219;28;20049;-75
2023/06/25 00:42:20;;;;;;;9.20;8.50;;;;;;;;;;5033761;28;20045;-75
2023/06/25 00:44:46;;;;;;;8.95;8.10;;;;;;;;;;5032590;28;20075;-75
2023/06/25 00:47:13;;;;;;;7.63;7.05;;;;;;;;;;5032597;28;20140;-75
2023/06/25 00:49:40;;;;;;;9.38;8.48;;;;;;;;;;5016331;28;20060;-75
2023/06/25 00:52:08;;;;;;;9.88;9.07;;;;;;;;;;5033462;28;20056;-75
2023/06/25 00:54:38;;;;;;;9.63;8.93;;;;;;;;;;5033954;28;20056;-75
2023/06/25 00:57:05;;;;;;;9.05;8.30;;;;;;;;;;5033408;28;20046;-75
2023/06/25 00:59:31;;;;;;;10.30;9.40;;;;;;;;;;5033438;28;20053;-75
2023/06/25 01:02:09;;;;;;;9.63;8.85;;;;;;;;;;5033176;28;20052;-75
2023/06/25 01:04:38;;;;;;;9.65;8.90;;;;;;;;;;5032572;28;20053;-75
2023/06/25 01:07:16;;;;;;;9.00;8.38;;;;;;;;;;5033320;28;20045;-75
2023/06/25 01:09:44;;;;;;;9.00;8.40;;;;;;;;;;5016236;28;20064;-75
2023/06/25 01:12:10;;;;;;;9.15;8.48;;;;;;;;;;5032097;28;20061;-75
2023/06/25 01:14:36;;;;;;;10.07;9.27;;;;;;;;;;5033846;28;20052;-75
2023/06/25 01:17:02;;;;;;;9.50;8.70;;;;;;;;;;5032925;28;20458;-75
2023/06/25 01:19:31;;;;;;;9.93;9.18;;;;;;;;;;5034247;28;20393;-75
2023/06/25 01:22:01;;;;;;;10.23;9.43;;;;;;;;;;5036098;28;20111;-75
2023/06/25 01:24:27;;;;;;;9.68;8.88;;;;;;;;;;5035328;28;20409;-75
2023/06/25 01:26:59;;;;;;;9.57;8.88;;;;;;;;;;5036956;28;20133;-75
2023/06/25 01:29:26;;;;;;;9.45;8.85;;;;;;;;;;5036206;28;20045;-75
2023/06/25 01:31:52;;;;;;;10.13;9.25;;;;;;;;;;5036154;28;20081;-75
2023/06/25 01:34:22;;;;;;;10.35;9.50;;;;;;;;;;5036100;28;20062;-75
2023/06/25 01:36:52;;;;;;;10.38;9.40;;;;;;;;;;5035779;28;20049;-75
2023/06/25 01:39:22;;;;;;;10.52;9.82;;;;;;;;;;5036001;28;20042;-75
2023/06/25 01:41:48;;;;;;;11.07;10.18;;;;;;;;;;5036556;28;20045;-75
2023/06/25 01:44:15;;;;;;;10.65;9.68;;;;;;;;;;5036540;28;20425;-75
2023/06/25 01:46:42;;;;;;;11.40;10.40;;;;;;;;;;5020054;28;20051;-75
2023/06/25 01:49:08;;;;;;;10.48;9.18;;;;;;;;;;5035594;28;20053;-75
2023/06/25 01:51:34;;;;;;;10.65;9.88;;;;;;;;;;5019259;28;20045;-75
2023/06/25 01:54:00;;;;;;;11.48;10.57;;;;;;;;;;5035561;28;20099;-75
2023/06/25 01:56:26;;;;;;;11.05;10.15;;;;;;;;;;5036248;28;20087;-75
2023/06/25 01:58:53;;;;;;;12.32;11.23;;;;;;;;;;5035359;28;20049;-75
2023/06/25 02:01:23;;;;;;;11.18;10.38;;;;;;;;;;5036152;28;20053;-75
2023/06/25 02:03:49;;;;;;;12.05;11.25;;;;;;;;;;5035913;28;20037;-75
2023/06/25 02:06:15;;;;;;;11.52;10.60;;;;;;;;;;5035268;28;20087;-75
2023/06/25 02:08:42;;;;;;;13.60;12.40;;;;;;;;;;5035202;28;20465;-75
2023/06/25 02:11:08;;;;;;;12.73;11.63;;;;;;;;;;5036190;28;20103;-75
2023/06/25 02:13:34;;;;;;;14.15;12.85;;;;;;;;;;5036889;28;20041;-75
2023/06/25 02:16:01;;;;;;;12.93;11.93;;;;;;;;;;5035902;28;20044;-75
2023/06/25 02:18:28;;;;;;;13.32;12.23;;;;;;;;;;5035744;28;20049;-75
2023/06/25 02:20:54;;;;;;;14.82;13.63;;;;;;;;;;5035042;28;20502;-75
2023/06/25 02:23:20;;;;;;;15.68;14.23;;;;;;;;;;5035803;28;20046;-75
2023/06/25 02:25:47;;;;;;;14.20;12.98;;;;;;;;;;5018330;28;20062;-75
2023/06/25 02:28:13;;;;;;;14.70;13.52;;;;;;;;;;5034869;28;20400;-75
2023/06/25 02:30:39;;;;;;;14.75;13.65;;;;;;;;;;5034289;28;20057;-75
2023/06/25 02:33:05;;;;;;;15.45;13.90;;;;;;;;;;5035792;28;20049;-74
2023/06/25 02:35:31;;;;;;;14.68;13.43;;;;;;;;;;5034530;28;20045;-75
2023/06/25 02:37:57;;;;;;;14.52;13.32;;;;;;;;;;5034483;28;20056;-75
2023/06/25 02:40:23;;;;;;;15.88;14.57;;;;;;;;;;5035649;28;20052;-75
2023/06/25 02:42:50;;;;;;;14.45;13.18;;;;;;;;;;5035213;28;20484;-75
2023/06/25 02:45:16;;;;;;;16.15;14.73;;;;;;;;;;5034534;28;20045;-75
2023/06/25 02:47:42;;;;;;;16.63;15.02;;;;;;;;;;5018272;28;20078;-74
2023/06/25 02:50:08;;;;;;;15.45;13.95;;;;;;;;;;5034484;28;20053;-76
2023/06/25 02:52:34;;;;;;;15.00;13.75;;;;;;;;;;5034587;28;20049;-75
2023/06/25 02:55:00;;;;;;;16.13;14.73;;;;;;;;;;5034135;28;20133;-75
2023/06/25 02:57:29;;;;;;;15.15;13.95;;;;;;;;;;5034594;28;20077;-74
2023/06/25 02:59:55;;;;;;;16.60;15.15;;;;;;;;;;5034227;28;20099;-75
2023/06/25 03:02:22;;;;;;;16.48;15.15;;;;;;;;;;5034945;28;20158;-75
2023/06/25 03:04:48;;;;;;;15.45;14.07;;;;;;;;;;5035887;28;20049;-75
2023/06/25 03:07:14;;;;;;;16.40;15.02;;;;;;;;;;5035063;28;20481;-75
2023/06/25 03:09:40;;;;;;;14.82;13.48;;;;;;;;;;5034852;28;20076;-75
2023/06/25 03:12:06;;;;;;;16.02;14.52;;;;;;;;;;5034853;28;20049;-75
2023/06/25 03:14:33;;;;;;;17.63;16.13;;;;;;;;;;5002129;28;20049;-75
2023/06/25 03:16:59;;;;;;;16.77;15.27;;;;;;;;;;5035018;28;20136;-75
2023/06/25 03:19:25;;;;;;;15.30;13.73;;;;;;;;;;5034089;28;20068;-74
2023/06/25 03:21:51;;;;;;;16.02;14.45;;;;;;;;;;5034033;28;20041;-74
2023/06/25 03:24:17;;;;;;;14.85;13.65;;;;;;;;;;5033312;28;20408;-74
2023/06/25 03:26:43;;;;;;;15.10;13.70;;;;;;;;;;5033695;28;20068;-74
2023/06/25 03:29:09;;;;;;;16.05;14.75;;;;;;;;;;5033751;28;20045;-74
2023/06/25 03:31:35;;;;;;;16.17;14.70;;;;;;;;;;5034593;28;20074;-74
2023/06/25 03:34:01;;;;;;;15.57;14.27;;;;;;;;;;5034611;28;20050;-74
2023/06/25 03:36:27;;;;;;;14.70;13.48;;;;;;;;;;5033489;28;20045;-74
2023/06/25 03:38:54;;;;;;;13.73;12.68;;;;;;;;;;5034307;28;20072;-74
2023/06/25 03:41:20;;;;;;;13.57;12.27;;;;;;;;;;5033421;28;20473;-74
2023/06/25 03:43:46;;;;;;;15.02;13.50;;;;;;;;;;5032321;28;20045;-74
2023/06/25 03:46:12;;;;;;;13.85;12.75;;;;;;;;;;5034386;28;20053;-74
2023/06/25 03:48:41;;;;;;;13.85;12.75;;;;;;;;;;5034900;28;20049;-74
2023/06/25 03:51:07;;;;;;;13.77;12.57;;;;;;;;;;5034777;28;20048;-74
2023/06/25 03:53:33;;;;;;;13.88;12.77;;;;;;;;;;5033177;28;20097;-74
2023/06/25 03:55:59;;;;;;;13.90;12.70;;;;;;;;;;5032994;28;20049;-74
2023/06/25 03:58:25;;;;;;;14.23;12.85;;;;;;;;;;5033413;28;20045;-75
2023/06/25 04:00:51;;;;;;;14.20;12.82;;;;;;;;;;5033144;28;20042;-74
2023/06/25 04:03:17;;;;;;;14.40;12.95;;;;;;;;;;5033965;28;20041;-74
2023/06/25 04:05:45;;;;;;;16.20;14.70;;;;;;;;;;5033083;28;20064;-74
2023/06/25 04:08:11;;;;;;;14.45;13.25;;;;;;;;;;5033371;28;20057;-74
2023/06/25 04:10:38;;;;;;;13.90;12.80;;;;;;;;;;5016577;28;20139;-74
2023/06/25 04:13:04;;;;;;;14.27;12.98;;;;;;;;;;5033897;28;20538;-74
2023/06/25 04:15:30;;;;;;;15.27;13.88;;;;;;;;;;5032934;28;20045;-74
2023/06/25 04:17:56;;;;;;;15.30;13.85;;;;;;;;;;5033887;28;20055;-74
2023/06/25 04:20:25;;;;;;;14.73;13.43;;;;;;;;;;5016420;28;20049;-74
2023/06/25 04:22:51;;;;;;;14.88;13.68;;;;;;;;;;5032640;28;20115;-74
2023/06/25 04:25:17;;;;;;;14.98;13.65;;;;;;;;;;5032817;28;20537;-74
2023/06/25 04:27:43;;;;;;;14.10;12.95;;;;;;;;;;5033678;28;20049;-74
2023/06/25 04:30:10;;;;;;;14.27;13.00;;;;;;;;;;5032735;28;20045;-74
2023/06/25 04:32:36;;;;;;;14.77;13.43;;;;;;;;;;5032623;28;20445;-74
2023/06/25 04:35:02;;;;;;;15.52;14.15;;;;;;;;;;5032619;28;20077;-74
2023/06/25 04:37:28;;;;;;;14.02;12.77;;;;;;;;;;5034140;28;20115;-74
2023/06/25 04:39:54;;;;;;;14.07;12.88;;;;;;;;;;5032619;28;20045;-74
2023/06/25 04:42:20;;;;;;;16.60;14.93;;;;;;;;;;5033450;28;20057;-74
2023/06/25 04:44:46;;;;;;;14.70;13.38;;;;;;;;;;5032862;28;20377;-74
2023/06/25 04:47:12;;;;;;;15.63;13.98;;;;;;;;;;5033564;28;20111;-74
2023/06/25 04:49:38;;;;;;;14.45;13.15;;;;;;;;;;5032771;28;20046;-75
2023/06/25 04:52:05;;;;;;;14.60;13.40;;;;;;;;;;5032442;28;20041;-74
2023/06/25 04:54:31;;;;;;;15.00;13.65;;;;;;;;;;5034393;28;20095;-73
2023/06/25 04:56:57;;;;;;;13.38;12.30;;;;;;;;;;5037551;28;20056;-76
2023/06/25 04:59:23;;;;;;;15.18;13.88;;;;;;;;;;5036343;28;20060;-76
2023/06/25 05:01:49;;;;;;;14.25;12.95;;;;;;;;;;5036452;28;20068;-76
2023/06/25 05:04:15;;;;;;;20.75;14.32;;;;;;;;;;5036180;28;20045;-76
2023/06/25 05:06:41;;;;;;;15.50;13.52;;;;;;;;;;5037146;28;20504;-77
2023/06/25 05:09:07;;;;;;;15.27;13.85;;;;;;;;;;5036321;28;20460;-77
2023/06/25 05:11:33;;;;;;;15.60;14.20;;;;;;;;;;5019601;28;20053;-77
2023/06/25 05:13:59;;;;;;;15.50;14.30;;;;;;;;;;5037201;28;20120;-76
2023/06/25 05:16:25;;;;;;;15.60;14.02;;;;;;;;;;5019955;28;20045;-77
2023/06/25 05:18:51;;;;;;;15.25;13.82;;;;;;;;;;5037639;28;20049;-77
2023/06/25 05:21:17;;;;;;;15.20;13.90;;;;;;;;;;5036926;28;20140;-77
2023/06/25 05:23:44;;;;;;;15.63;14.25;;;;;;;;;;5036176;28;20062;-77
2023/06/25 05:26:11;;;;;;;15.82;14.30;;;;;;;;;;5036340;28;20123;-77
2023/06/25 05:28:38;;;;;;;14.70;13.18;;;;;;;;;;5035985;28;20049;-77
2023/06/25 05:31:04;;;;;;;14.95;13.65;;;;;;;;;;5035653;28;20490;-77
2023/06/25 05:33:30;;;;;;;16.67;15.15;;;;;;;;;;5035873;28;20053;-77
2023/06/25 05:35:56;;;;;;;16.60;14.88;;;;;;;;;;5035867;28;20440;-77
2023/06/25 05:38:22;;;;;;;15.88;14.57;;;;;;;;;;5035812;28;20408;-77
2023/06/25 05:40:48;;;;;;;16.65;15.23;;;;;;;;;;5035713;28;20049;-77
2023/06/25 05:43:14;;;;;;;15.50;14.20;;;;;;;;;;5019047;28;20045;-77
2023/06/25 05:45:40;;;;;;;16.73;15.30;;;;;;;;;;5018847;28;20136;-77
2023/06/25 05:48:06;;;;;;;16.02;14.40;;;;;;;;;;5036572;28;20099;-77
2023/06/25 05:50:32;;;;;;;16.90;15.27;;;;;;;;;;5035818;28;20103;-76
2023/06/25 05:52:58;;;;;;;16.30;14.70;;;;;;;;;;5036238;28;20045;-77
2023/06/25 05:55:24;;;;;;;17.90;16.35;;;;;;;;;;5035510;28;20049;-77
2023/06/25 05:57:51;;;;;;;16.58;15.15;;;;;;;;;;5035454;28;20048;-76
2023/06/25 06:00:17;;;;;;;17.05;15.45;;;;;;;;;;5035339;28;20128;-77
2023/06/25 06:02:43;;;;;;;16.20;14.95;;;;;;;;;;5035346;28;20050;-75
2023/06/25 06:05:09;;;;;;;17.98;16.30;;;;;;;;;;5035391;28;20049;-76
2023/06/25 06:07:35;;;;;;;15.98;14.55;;;;;;;;;;5035183;28;20136;-76
2023/06/25 06:10:01;;;;;;;18.55;16.90;;;;;;;;;;5035076;28;20053;-76
2023/06/25 06:12:27;;;;;;;17.77;16.17;;;;;;;;;;5036165;28;20064;-76
2023/06/25 06:14:54;;;;;;;18.27;16.67;;;;;;;;;;5034851;28;20041;-76
2023/06/25 06:17:20;;;;;;;18.55;17.05;;;;;;;;;;5035086;28;20504;-76
2023/06/25 06:19:46;;;;;;;18.50;17.00;;;;;;;;;;5036014;28;20049;-76
2023/06/25 06:22:13;;;;;;;18.98;17.35;;;;;;;;;;5002596;28;20057;-76
2023/06/25 06:24:39;;;;;;;18.77;17.30;;;;;;;;;;5034534;28;20062;-76
2023/06/25 06:27:06;;;;;;;19.33;17.63;;;;;;;;;;5034850;28;20053;-76
2023/06/25 06:29:32;;;;;;;17.90;16.40;;;;;;;;;;5018254;28;20053;-76
2023/06/25 06:31:58;;;;;;;19.00;17.48;;;;;;;;;;5019200;28;20069;-76
2023/06/25 06:34:24;;;;;;;19.90;18.20;;;;;;;;;;5036567;28;20041;-75
2023/06/25 06:36:50;;;;;;;18.15;16.63;;;;;;;;;;5034717;28;20060;-75
2023/06/25 06:39:16;;;;;;;18.60;17.17;;;;;;;;;;5035499;28;20084;-75
2023/06/25 06:41:42;;;;;;;20.30;18.50;;;;;;;;;;5036163;28;20054;-75
2023/06/25 06:44:13;;;;;;;18.73;17.13;;;;;;;;;;5035159;28;20381;-75
2023/06/25 06:46:39;;;;;;;18.98;17.48;;;;;;;;;;5034794;28;20080;-75
2023/06/25 06:49:05;;;;;;;19.73;17.92;;;;;;;;;;5002598;28;20099;-75
2023/06/25 06:51:32;;;;;;;18.23;16.73;;;;;;;;;;5034349;28;20087;-75
2023/06/25 06:53:58;;;;;;;18.35;16.77;;;;;;;;;;5034226;28;20049;-75
2023/06/25 06:56:24;;;;;;;18.23;16.77;;;;;;;;;;5018684;28;20056;-75
2023/06/25 06:58:50;;;;;;;17.13;15.85;;;;;;;;;;5035290;28;20084;-75
2023/06/25 07:01:16;;;;;;;19.38;17.88;;;;;;;;;;5034214;28;20038;-75
2023/06/25 07:03:42;;;;;;;19.02;17.50;;;;;;;;;;5034040;28;20052;-75
2023/06/25 07:06:08;;;;;;;17.98;16.48;;;;;;;;;;5034951;28;20481;-76
2023/06/25 07:08:34;;;;;;;16.50;15.27;;;;;;;;;;5033845;28;20053;-75
2023/06/25 07:11:00;;;;;;;17.35;15.90;;;;;;;;;;5034076;28;20048;-75
2023/06/25 07:13:28;;;;;;;16.02;14.80;;;;;;;;;;5034065;28;20059;-75
2023/06/25 07:15:54;;;;;;;17.42;16.13;;;;;;;;;;5034734;28;20060;-76
2023/06/25 07:18:20;;;;;;;16.65;15.38;;;;;;;;;;5033818;28;20370;-75
2023/06/25 07:20:46;;;;;;;17.98;16.42;;;;;;;;;;5035444;28;20123;-75
2023/06/25 07:23:12;;;;;;;16.27;15.02;;;;;;;;;;5034632;28;20052;-75
2023/06/25 07:25:39;;;;;;;16.90;15.50;;;;;;;;;;5034034;28;20128;-75
2023/06/25 07:28:05;;;;;;;16.45;15.15;;;;;;;;;;5034577;28;20041;-75
2023/06/25 07:30:32;;;;;;;16.50;15.27;;;;;;;;;;5034226;28;20045;-77
2023/06/25 07:32:58;;;;;;;15.57;14.50;;;;;;;;;;5033606;28;20056;-75
2023/06/25 07:35:24;;;;;;;17.67;16.27;;;;;;;;;;5033621;28;20108;-75
2023/06/25 07:37:50;;;;;;;17.17;15.80;;;;;;;;;;5034406;28;20045;-75
2023/06/25 07:40:16;;;;;;;16.52;14.95;;;;;;;;;;5033779;28;20049;-75
2023/06/25 07:42:42;;;;;;;16.90;15.57;;;;;;;;;;5034159;28;20045;-75
2023/06/25 07:45:09;;;;;;;14.38;13.25;;;;;;;;;;5033391;28;20052;-75
2023/06/25 07:47:35;;;;;;;12.65;11.93;;;;;;;;;;5033393;28;20052;-75
2023/06/25 07:50:02;;;;;;;14.68;13.57;;;;;;;;;;5033166;28;20045;-75
2023/06/25 07:52:28;;;;;;;13.10;12.10;;;;;;;;;;5016469;28;20088;-75
2023/06/25 07:54:54;;;;;;;12.35;11.35;;;;;;;;;;5034087;28;20057;-75
2023/06/25 07:57:20;;;;;;;13.93;12.82;;;;;;;;;;5033224;28;20041;-75
2023/06/25 07:59:46;;;;;;;11.55;10.80;;;;;;;;;;5032864;28;20132;-75
2023/06/25 08:02:12;;;;;;;10.90;10.23;;;;;;;;;;5033678;28;20393;-75
2023/06/25 08:04:38;;;;;;;11.40;10.55;;;;;;;;;;5032493;28;20042;-75
2023/06/25 08:07:04;;;;;;;13.35;12.25;;;;;;;;;;5032784;28;20401;-75
2023/06/25 08:09:31;;;;;;;11.20;10.05;;;;;;;;;;5034214;28;20049;-77
2023/06/25 08:11:57;;;;;;;11.45;10.35;;;;;;;;;;5032989;28;20049;-76
2023/06/25 08:14:23;;;;;;;11.50;10.70;;;;;;;;;;5032948;28;20053;-76
2023/06/25 08:16:49;;;;;;;11.38;10.48;;;;;;;;;;5033200;28;20131;-75
2023/06/25 08:19:15;;;;;;;10.43;9.73;;;;;;;;;;5032878;28;20527;-75
2023/06/25 08:21:41;;;;;;;8.40;7.82;;;;;;;;;;5032813;28;20042;-75
2023/06/25 08:24:08;;;;;;;10.32;9.52;;;;;;;;;;5032284;28;20162;-76
2023/06/25 08:26:34;;;;;;;7.90;7.40;;;;;;;;;;5032415;28;20398;-76
2023/06/25 08:29:00;;;;;;;9.05;8.40;;;;;;;;;;5015955;28;20060;-75
2023/06/25 08:31:26;;;;;;;8.02;7.43;;;;;;;;;;5032755;28;20096;-75
2023/06/25 08:33:52;;;;;;;6.97;6.57;;;;;;;;;;5033617;28;20065;-76
2023/06/25 08:36:18;;;;;;;7.30;6.72;;;;;;;;;;5032914;28;20055;-76
2023/06/25 08:38:44;;;;;;;6.75;6.20;;;;;;;;;;5032648;28;20099;-76
2023/06/25 08:41:10;;;;;;;7.57;7.03;;;;;;;;;;5032638;28;20042;-76
2023/06/25 08:43:37;;;;;;;7.72;6.97;;;;;;;;;;5032443;28;20042;-76
2023/06/25 08:46:03;;;;;;;6.00;5.60;;;;;;;;;;5032543;28;20084;-77
2023/06/25 08:48:30;;;;;;;5.18;4.90;;;;;;;;;;5032564;28;20049;-76
2023/06/25 08:50:56;;;;;;;4.72;4.47;;;;;;;;;;5033369;28;20122;-77
2023/06/25 08:53:29;;;;;;;5.35;5.05;;;;;;;;;;5032381;28;20045;-75
2023/06/25 08:55:56;;;;;;;6.63;5.53;;;;;;;;;;5016835;28;20140;-76
2023/06/25 08:58:24;;;;;;;4.70;4.30;;;;;;;;;;5032182;28;20462;-76
2023/06/25 09:00:50;;;;;;;4.00;3.80;;;;;;;;;;5015899;28;20060;-76
2023/06/25 09:03:16;;;;;;;4.72;4.20;;;;;;;;;;5032246;28;20037;-76
2023/06/25 09:05:50;;;;;;;4.57;4.28;;;;;;;;;;5033210;28;20052;-76
2023/06/25 09:08:17;;;;;;;5.25;4.85;;;;;;;;;;5033247;28;20045;-76
2023/06/25 09:10:43;;;;;;;4.55;4.25;;;;;;;;;;5033262;28;20052;-76
2023/06/25 09:13:09;;;;;;;3.75;3.55;;;;;;;;;;5032039;28;20108;-76
2023/06/25 09:15:35;;;;;;;4.65;4.25;;;;;;;;;;5032331;28;20050;-76
2023/06/25 09:18:01;;;;;;;3.30;3.08;;;;;;;;;;5015875;28;20037;-76
2023/06/25 09:20:27;;;;;;;3.65;3.25;;;;;;;;;;5015531;28;20124;-76
2023/06/25 09:22:54;;;;;;;3.13;2.92;;;;;;;;;;5033137;28;20172;-80
2023/06/25 09:25:21;;;;;;;3.35;3.15;;;;;;;;;;4999112;28;20050;-76
2023/06/25 09:27:48;;;;;;;3.17;3.03;;;;;;;;;;5031977;28;20499;-77
2023/06/25 09:30:16;;;;;;;2.97;2.67;;;;;;;;;;5016193;28;20046;-76
2023/06/25 09:32:52;;;;;;;3.00;2.80;;;;;;;;;;5033003;28;20060;-76
2023/06/25 09:35:19;;;;;;;4.03;3.80;;;;;;;;;;5032141;28;20440;-76
2023/06/25 09:37:45;;;;;;;3.65;3.38;;;;;;;;;;5032181;28;20052;-76
2023/06/25 09:40:12;;;;;;;4.07;3.78;;;;;;;;;;5032422;28;20056;-76
2023/06/25 09:42:38;;;;;;;4.38;3.05;;;;;;;;;;5036773;28;20088;-76
2023/06/25 09:45:04;;;;;;;2.92;2.72;;;;;;;;;;5036082;28;20092;-76
2023/06/25 09:47:31;;;;;;;3.97;3.67;;;;;;;;;;5020013;28;20042;-76
2023/06/25 09:49:57;;;;;;;3.50;3.15;;;;;;;;;;5035956;28;20056;-76
2023/06/25 09:52:24;;;;;;;3.25;2.95;;;;;;;;;;5019207;28;20393;-76
2023/06/25 09:54:52;;;;;;;4.65;3.20;;;;;;;;;;5036344;28;20049;-76
2023/06/25 09:57:20;;;;;;;4.15;3.85;;;;;;;;;;5035536;28;20050;-76
2023/06/25 09:59:46;;;;;;;4.57;4.18;;;;;;;;;;5035758;28;20046;-76
2023/06/25 10:02:15;;;;;;;3.42;3.15;;;;;;;;;;5035454;28;20136;-76
2023/06/25 10:04:41;;;;;;;3.58;3.33;;;;;;;;;;5035061;28;20052;-76
2023/06/25 10:07:07;;;;;;;3.80;3.50;;;;;;;;;;5018793;28;20496;-76
2023/06/25 10:09:33;;;;;;;3.33;3.13;;;;;;;;;;5036047;28;20052;-76
2023/06/25 10:11:59;;;;;;;3.38;3.17;;;;;;;;;;5018835;28;20136;-76
2023/06/25 10:14:26;;;;;;;3.38;3.17;;;;;;;;;;5002127;28;20104;-76
2023/06/25 10:16:53;;;;;;;3.58;3.28;;;;;;;;;;5035159;28;20520;-76
2023/06/25 10:19:20;;;;;;;3.65;3.33;;;;;;;;;;5019425;28;20385;-76
2023/06/25 10:21:46;;;;;;;3.20;2.90;;;;;;;;;;5035331;28;20060;-76
2023/06/25 10:24:12;;;;;;;3.72;3.40;;;;;;;;;;5034394;28;20057;-76
2023/06/25 10:26:38;;;;;;;3.33;3.03;;;;;;;;;;5018496;28;20065;-77
2023/06/25 10:29:08;;;;;;;2.55;2.35;;;;;;;;;;5035777;28;20373;-76
2023/06/25 10:31:38;;;;;;;2.58;2.42;;;;;;;;;;5035722;28;20124;-76
2023/06/25 10:34:07;;;;;;;2.28;2.08;;;;;;;;;;5018598;28;20092;-76
2023/06/25 10:36:33;;;;;;;3.08;1.95;;;;;;;;;;5035553;28;20045;-77
2023/06/25 10:38:59;;;;;;;2.72;2.53;;;;;;;;;;5035543;28;20053;-77
2023/06/25 10:41:27;;;;;;;2.50;2.40;;;;;;;;;;5034702;28;20099;-77
2023/06/25 10:43:53;;;;;;;2.38;2.25;;;;;;;;;;5034468;28;20045;-77
2023/06/25 10:46:26;;;;;;;4.25;3.03;;;;;;;;;;5035413;28;20053;-78
2023/06/25 10:48:52;;;;;;;2.58;2.38;;;;;;;;;;5034247;28;20061;-79
2023/06/25 10:51:19;;;;;;;2.42;2.33;;;;;;;;;;5017532;28;20056;-76
2023/06/25 10:53:45;;;;;;;2.95;2.20;;;;;;;;;;5034306;28;20485;-76
2023/06/25 10:56:12;;;;;;;2.35;2.15;;;;;;;;;;5034681;28;20436;-78
2023/06/25 10:58:41;;;;;;;2.35;2.00;;;;;;;;;;5034408;28;20057;-77
2023/06/25 11:01:07;;;;;;;2.72;2.35;;;;;;;;;;5034548;28;20478;-76
2023/06/25 11:03:38;;;;;;;3.40;2.53;;;;;;;;;;5034081;28;20084;-76
2023/06/25 11:06:04;;;;;;;2.78;2.67;;;;;;;;;;5034122;28;20049;-77
2023/06/25 11:08:30;;;;;;;2.63;2.38;;;;;;;;;;5034188;28;20101;-76
2023/06/25 11:10:56;;;;;;;2.80;2.60;;;;;;;;;;5034143;28;20046;-77
2023/06/25 11:13:22;;;;;;;2.85;2.72;;;;;;;;;;5017685;28;20450;-77
2023/06/25 11:15:48;;;;;;;2.83;2.63;;;;;;;;;;5017522;28;20053;-77
2023/06/25 11:18:15;;;;;;;2.67;2.58;;;;;;;;;;5017224;28;20049;-77
2023/06/25 11:20:41;;;;;;;2.83;2.72;;;;;;;;;;5017068;28;20053;-77
2023/06/25 11:23:12;;;;;;;2.95;2.70;;;;;;;;;;5033423;28;20042;-77
2023/06/25 11:25:38;;;;;;;2.67;2.47;;;;;;;;;;5034063;28;20049;-77
2023/06/25 11:28:14;;;;;;;2.92;2.83;;;;;;;;;;5033359;28;20053;-77
2023/06/25 11:30:40;;;;;;;2.63;2.42;;;;;;;;;;5034545;28;20052;-81
2023/06/25 11:33:16;;;;;;;2.63;2.05;;;;;;;;;;5016886;28;20477;-79
2023/06/25 11:35:49;;;;;;;2.13;2.03;;;;;;;;;;5017974;28;20064;-79
2023/06/25 11:38:24;;;;;;;2.50;2.28;;;;;;;;;;5018035;28;20041;-80
2023/06/25 11:40:53;;;;;;;1.90;1.80;;;;;;;;;;5017984;28;20088;-80
2023/06/25 11:43:25;;;;;;;2.60;2.03;;;;;;;;;;5016952;28;20065;-79
2023/06/25 11:45:52;;;;;;;2.22;2.03;;;;;;;;;;5033424;28;20473;-78
2023/06/25 11:48:20;;;;;;;2.35;2.15;;;;;;;;;;5017169;28;20053;-78
2023/06/25 11:50:46;;;;;;;2.53;2.28;;;;;;;;;;5033343;28;20489;-78
2023/06/25 11:53:14;;;;;;;2.78;2.58;;;;;;;;;;5032907;28;20061;-79
2023/06/25 11:55:40;;;;;;;2.05;1.92;;;;;;;;;;5032946;28;20128;-77
2023/06/25 11:58:06;;;;;;;2.13;2.03;;;;;;;;;;5033296;28;20099;-77
2023/06/25 12:00:33;;;;;;;4.63;2.30;;;;;;;;;;5016874;28;20457;-77
2023/06/25 12:02:59;;;;;;;2.60;2.40;;;;;;;;;;5033370;28;20394;-77
2023/06/25 12:05:25;;;;;;;2.35;2.25;;;;;;;;;;5032635;28;20477;-77
2023/06/25 12:07:51;;;;;;;2.40;2.30;;;;;;;;;;5000438;28;20413;-77
2023/06/25 12:10:17;;;;;;;4.13;2.28;;;;;;;;;;5000363;28;20474;-77
2023/06/25 12:12:47;;;;;;;2.47;2.28;;;;;;;;;;5033286;28;20049;-77
2023/06/25 12:15:13;;;;;;;2.70;2.60;;;;;;;;;;5033826;28;20050;-77
2023/06/25 12:17:39;;;;;;;2.20;2.10;;;;;;;;;;5016352;28;20091;-77
2023/06/25 12:20:05;;;;;;;2.67;2.10;;;;;;;;;;5032573;28;20054;-77
2023/06/25 12:22:32;;;;;;;2.38;2.13;;;;;;;;;;5032570;28;20045;-77
2023/06/25 12:24:58;;;;;;;2.75;2.35;;;;;;;;;;5032014;28;20057;-76
2023/06/25 12:27:24;;;;;;;1.95;1.77;;;;;;;;;;5032514;28;20409;-79
2023/06/25 12:29:50;;;;;;;5.03;2.67;;;;;;;;;;5032409;28;20102;-76
2023/06/25 12:32:16;;;;;;;2.67;2.47;;;;;;;;;;5033127;28;20046;-76
2023/06/25 12:34:43;;;;;;;2.90;2.45;;;;;;;;;;5032594;28;20073;-76
2023/06/25 12:37:09;;;;;;;2.60;2.40;;;;;;;;;;5016474;28;20128;-76
2023/06/25 12:39:35;;;;;;;2.50;2.30;;;;;;;;;;5034456;28;20103;-76
2023/06/25 12:42:02;;;;;;;2.88;2.63;;;;;;;;;;5033427;28;20049;-77
2023/06/25 12:44:28;;;;;;;1.80;1.70;;;;;;;;;;5016041;28;20475;-77
2023/06/25 12:46:54;;;;;;;2.03;1.92;;;;;;;;;;5016995;28;20385;-77
2023/06/25 12:49:20;;;;;;;2.20;2.00;;;;;;;;;;5016149;28;20085;-77
2023/06/25 12:51:47;;;;;;;4.30;1.90;;;;;;;;;;5016061;28;20119;-76
2023/06/25 12:54:13;;;;;;;1.65;1.48;;;;;;;;;;5032434;28;20084;-76
2023/06/25 12:56:39;;;;;;;2.03;1.80;;;;;;;;;;5032764;28;20466;-76
2023/06/25 12:59:05;;;;;;;2.50;1.98;;;;;;;;;;5032485;28;20087;-76
2023/06/25 13:01:31;;;;;;;3.45;2.05;;;;;;;;;;5016050;28;20091;-77
2023/06/25 13:03:57;;;;;;;2.17;2.05;;;;;;;;;;5031897;28;20073;-77
2023/06/25 13:06:23;;;;;;;3.70;3.00;;;;;;;;;;5032382;28;20496;-78
2023/06/25 13:08:49;;;;;;;2.13;2.00;;;;;;;;;;5032375;28;20504;-76
2023/06/25 13:11:16;;;;;;;2.05;1.88;;;;;;;;;;5032724;28;20045;-77
2023/06/25 13:13:42;;;;;;;2.33;2.13;;;;;;;;;;5032368;28;20130;-77
2023/06/25 13:16:08;;;;;;;1.90;1.80;;;;;;;;;;5036981;28;20045;-77
2023/06/25 13:18:37;;;;;;;2.20;2.00;;;;;;;;;;5036227;28;20615;-77
2023/06/25 13:21:04;;;;;;;2.22;2.05;;;;;;;;;;5020235;28;20042;-76
2023/06/25 13:23:30;;;;;;;2.47;2.20;;;;;;;;;;5035497;28;20471;-77
2023/06/25 13:25:56;;;;;;;2.53;2.42;;;;;;;;;;5019853;28;20163;-76
2023/06/25 13:28:22;;;;;;;2.47;1.92;;;;;;;;;;5020340;28;20129;-76
2023/06/25 13:30:48;;;;;;;1.90;1.80;;;;;;;;;;5036070;28;20045;-77
2023/06/25 13:33:14;;;;;;;3.08;2.38;;;;;;;;;;5019880;28;20049;-78
2023/06/25 13:35:40;;;;;;;2.78;2.10;;;;;;;;;;5036187;28;20091;-77
2023/06/25 13:38:08;;;;;;;2.63;2.38;;;;;;;;;;5035833;28;20045;-76
2023/06/25 13:40:34;;;;;;;2.38;2.17;;;;;;;;;;5019683;28;20136;-77
2023/06/25 13:43:01;;;;;;;2.17;2.08;;;;;;;;;;5035729;28;20037;-77
2023/06/25 13:45:28;;;;;;;2.47;2.38;;;;;;;;;;5019655;28;20140;-77
2023/06/25 13:47:54;;;;;;;2.53;2.40;;;;;;;;;;5003075;28;20057;-76
2023/06/25 13:50:22;;;;;;;3.25;3.05;;;;;;;;;;5035510;28;20057;-76
2023/06/25 13:52:48;;;;;;;2.13;2.03;;;;;;;;;;5035640;28;20045;-77
2023/06/25 13:55:14;;;;;;;2.40;2.28;;;;;;;;;;5035474;28;20049;-76
2023/06/25 13:57:40;;;;;;;2.85;2.00;;;;;;;;;;5035901;28;20485;-77
2023/06/25 14:00:07;;;;;;;2.55;2.25;;;;;;;;;;5036360;28;20132;-77
2023/06/25 14:02:33;;;;;;;2.70;2.45;;;;;;;;;;5035357;28;20057;-77
2023/06/25 14:04:59;;;;;;;2.80;2.70;;;;;;;;;;5018673;28;20156;-77
2023/06/25 14:07:25;;;;;;;2.50;2.40;;;;;;;;;;5018853;28;20153;-76
2023/06/25 14:09:52;;;;;;;2.15;2.05;;;;;;;;;;5035007;28;20041;-76
2023/06/25 14:12:18;;;;;;;2.47;2.38;;;;;;;;;;5018995;28;20099;-76
2023/06/25 14:14:44;;;;;;;2.80;2.70;;;;;;;;;;5036105;28;20507;-77
2023/06/25 14:17:10;;;;;;;2.67;2.55;;;;;;;;;;5035659;28;20466;-76
2023/06/25 14:19:36;;;;;;;2.60;2.50;;;;;;;;;;5035934;28;20428;-77
2023/06/25 14:22:02;;;;;;;2.17;2.05;;;;;;;;;;5018645;28;20049;-76
2023/06/25 14:24:28;;;;;;;2.38;2.28;;;;;;;;;;5034588;28;20053;-77
2023/06/25 14:26:55;;;;;;;3.13;2.97;;;;;;;;;;5034270;28;20053;-76